createdAt,value
2019-04-25T00:00:48.653Z,45.57
2019-04-25T00:03:22.210Z,43.40
2019-04-25T00:05:52.846Z,48.47
2019-04-25T00:08:23.689Z,47.37
2019-04-25T00:10:54.149Z,46.55
2019-04-25T00:13:24.970Z,41.97
2019-04-25T00:15:55.514Z,51.33
2019-04-25T00:18:25.901Z,53.47
2019-04-25T00:20:57.925Z,51.10
2019-04-25T00:23:28.352Z,58.00
2019-04-25T00:26:11.218Z,54.53
2019-04-25T00:28:44.337Z,60.07
2019-04-25T00:31:15.078Z,59.17
2019-04-25T00:33:46.031Z,52.60
2019-04-25T00:36:16.580Z,75.47
2019-04-25T00:38:48.223Z,54.90
2019-04-25T00:41:19.106Z,59.03
2019-04-25T00:43:50.061Z,53.53
2019-04-25T00:46:22.523Z,47.55
2019-04-25T00:48:53.239Z,52.97
2019-04-25T00:51:23.939Z,55.70
2019-04-25T00:53:54.816Z,51.33
2019-04-25T00:56:25.499Z,62.20
2019-04-25T00:59:03.227Z,51.70
2019-04-25T01:01:41.402Z,47.30
2019-04-25T01:04:13.399Z,46.70
2019-04-25T01:06:44.000Z,58.35
2019-04-25T01:09:16.303Z,48.90
2019-04-25T01:11:46.755Z,51.53
2019-04-25T01:14:17.171Z,55.93
2019-04-25T01:16:48.568Z,47.53
2019-04-25T01:19:19.236Z,68.40
2019-04-25T01:21:49.689Z,62.73
2019-04-25T01:24:21.107Z,60.40
2019-04-25T01:26:51.684Z,54.97
2019-04-25T01:29:23.470Z,48.07
2019-04-25T01:31:54.460Z,48.77
2019-04-25T01:34:36.331Z,56.40
2019-04-25T01:37:11.405Z,48.63
2019-04-25T01:39:44.202Z,58.60
2019-04-25T01:42:20.302Z,55.50
2019-04-25T01:44:53.824Z,53.33
2019-04-25T01:47:24.791Z,52.80
2019-04-25T01:49:55.557Z,50.00
2019-04-25T01:52:26.884Z,52.40
2019-04-25T01:54:58.907Z,50.70
2019-04-25T01:57:29.486Z,49.47
2019-04-25T02:00:00.085Z,44.73
2019-04-25T02:02:30.682Z,42.93
2019-04-25T02:05:01.146Z,46.37
2019-04-25T02:07:33.282Z,47.83
2019-04-25T02:10:06.560Z,47.63
2019-04-25T02:12:38.559Z,47.70
2019-04-25T02:15:09.139Z,46.20
2019-04-25T02:17:39.604Z,53.33
2019-04-25T02:20:10.155Z,48.33
2019-04-25T02:22:40.598Z,47.67
2019-04-25T02:25:10.986Z,57.00
2019-04-25T02:27:41.402Z,48.90
2019-04-25T02:30:15.441Z,52.00
2019-04-25T02:32:45.968Z,46.87
2019-04-25T02:35:16.815Z,48.00
2019-04-25T02:37:47.229Z,46.53
2019-04-25T02:40:23.823Z,45.87
2019-04-25T02:42:55.830Z,50.47
2019-04-25T02:45:44.212Z,51.25
2019-04-25T02:48:25.348Z,46.00
2019-04-25T02:51:01.116Z,52.13
2019-04-25T02:53:37.655Z,52.23
2019-04-25T02:56:27.469Z,45.37
2019-04-25T02:58:40.776Z,46.73
2019-04-25T03:01:19.347Z,42.60
2019-04-25T03:03:45.076Z,43.90
2019-04-25T03:06:15.483Z,45.80
2019-04-25T03:08:54.024Z,39.73
2019-04-25T03:11:24.492Z,44.13
2019-04-25T03:13:55.549Z,53.43
2019-04-25T03:16:26.150Z,45.53
2019-04-25T03:19:16.048Z,49.10
2019-04-25T03:21:48.243Z,48.30
2019-04-25T03:24:18.758Z,49.87
2019-04-25T03:26:53.203Z,50.03
2019-04-25T03:29:24.764Z,44.27
2019-04-25T03:31:56.404Z,45.67
2019-04-25T03:34:26.955Z,44.83
2019-04-25T03:36:57.871Z,42.98
2019-04-25T03:39:30.045Z,51.70
2019-04-25T03:42:02.216Z,44.30
2019-04-25T03:44:33.796Z,51.08
2019-04-25T03:47:08.669Z,51.60
2019-04-25T03:49:40.883Z,48.63
2019-04-25T03:52:12.232Z,50.95
2019-04-25T03:54:43.646Z,56.50
2019-04-25T03:57:14.645Z,50.38
2019-04-25T03:59:50.438Z,45.15
2019-04-25T04:02:23.465Z,41.80
2019-04-25T04:04:59.704Z,51.58
2019-04-25T04:07:30.210Z,45.15
2019-04-25T04:10:00.705Z,42.20
2019-04-25T04:12:33.915Z,50.17
2019-04-25T04:15:10.413Z,64.17
2019-04-25T04:18:01.439Z,52.23
2019-04-25T04:20:36.442Z,54.23
2019-04-25T04:23:14.368Z,61.98
2019-04-25T04:25:45.093Z,57.15
2019-04-25T04:28:16.024Z,59.63
2019-04-25T04:30:46.651Z,56.13
2019-04-25T04:33:29.472Z,55.90
2019-04-25T04:35:49.148Z,51.45
2019-04-25T04:38:21.021Z,44.05
2019-04-25T04:40:55.109Z,50.25
2019-04-25T04:43:25.760Z,38.35
2019-04-25T04:45:58.107Z,46.15
2019-04-25T04:48:54.003Z,48.10
2019-04-25T04:51:37.428Z,44.53
2019-04-25T04:54:11.029Z,43.30
2019-04-25T04:56:41.446Z,35.28
2019-04-25T04:59:12.859Z,36.45
2019-04-25T05:02:03.334Z,37.15
2019-04-25T05:04:37.240Z,38.67
2019-04-25T05:07:11.980Z,38.58
2019-04-25T05:09:44.869Z,34.55
2019-04-25T05:12:17.486Z,34.03
2019-04-25T05:14:48.078Z,35.78
2019-04-25T05:17:21.860Z,36.20
2019-04-25T05:19:53.698Z,41.20
2019-04-25T05:22:33.268Z,37.85
2019-04-25T05:25:04.789Z,33.88
2019-04-25T05:27:45.973Z,36.50
2019-04-25T05:30:10.122Z,31.00
2019-04-25T05:32:40.687Z,33.02
2019-04-25T05:35:11.166Z,31.30
2019-04-25T05:37:43.608Z,32.93
2019-04-25T05:40:15.765Z,32.23
2019-04-25T05:42:50.821Z,31.97
2019-04-25T05:45:28.398Z,31.80
2019-04-25T05:47:59.013Z,31.17
2019-04-25T05:50:29.381Z,29.87
2019-04-25T05:53:00.209Z,33.80
2019-04-25T05:55:30.639Z,30.97
2019-04-25T05:58:01.233Z,33.75
2019-04-25T06:00:31.637Z,26.48
2019-04-25T06:03:03.444Z,26.77
2019-04-25T06:05:37.825Z,30.30
2019-04-25T06:08:10.933Z,32.95
2019-04-25T06:11:04.045Z,32.63
2019-04-25T06:13:43.371Z,33.70
2019-04-25T06:16:20.204Z,34.60
2019-04-25T06:18:52.284Z,43.13
2019-04-25T06:21:23.572Z,32.00
2019-04-25T06:24:07.883Z,30.48
2019-04-25T06:26:40.116Z,29.70
2019-04-25T06:29:10.832Z,33.55
2019-04-25T06:31:43.913Z,33.83
2019-04-25T06:34:14.811Z,32.20
2019-04-25T06:36:45.270Z,36.48
2019-04-25T06:39:17.346Z,35.50
2019-04-25T06:41:47.791Z,45.83
2019-04-25T06:44:20.658Z,35.88
2019-04-25T06:47:03.700Z,37.83
2019-04-25T06:49:40.049Z,40.17
2019-04-25T06:52:13.840Z,42.30
2019-04-25T06:54:48.884Z,45.33
2019-04-25T06:57:22.018Z,36.65
2019-04-25T06:59:55.691Z,38.38
2019-04-25T07:02:28.892Z,37.05
2019-04-25T07:04:59.975Z,39.75
2019-04-25T07:07:32.033Z,44.77
2019-04-25T07:10:09.321Z,40.08
2019-04-25T07:12:39.777Z,44.03
2019-04-25T07:15:13.799Z,39.50
2019-04-25T07:17:45.830Z,39.92
2019-04-25T07:20:16.803Z,42.62
2019-04-25T07:22:51.239Z,41.80
2019-04-25T07:25:26.347Z,40.40
2019-04-25T07:28:23.892Z,38.53
2019-04-25T07:30:54.491Z,40.60
2019-04-25T07:33:29.684Z,43.13
2019-04-25T07:36:01.751Z,42.43
2019-04-25T07:38:33.793Z,43.25
2019-04-25T07:41:07.008Z,42.95
2019-04-25T07:43:39.052Z,39.58
2019-04-25T07:46:13.359Z,43.75
2019-04-25T07:48:43.895Z,44.08
2019-04-25T07:51:16.431Z,44.18
2019-04-25T07:53:46.720Z,46.05
2019-04-25T07:56:19.754Z,43.95
2019-04-25T07:58:52.702Z,47.13
2019-04-25T08:01:25.618Z,42.83
2019-04-25T08:03:56.092Z,42.40
2019-04-25T08:06:27.988Z,44.93
2019-04-25T08:09:01.169Z,47.62
2019-04-25T08:11:34.182Z,44.00
2019-04-25T08:14:10.419Z,42.48
2019-04-25T08:16:53.768Z,42.55
2019-04-25T08:19:28.722Z,40.65
2019-04-25T08:22:01.439Z,50.43
2019-04-25T08:24:37.259Z,41.83
2019-04-25T08:27:13.778Z,38.73
2019-04-25T08:29:48.521Z,46.10
2019-04-25T08:32:21.362Z,41.35
2019-04-25T08:34:54.282Z,40.60
2019-04-25T08:37:24.932Z,37.95
2019-04-25T08:39:58.361Z,41.58
2019-04-25T08:42:32.821Z,36.90
2019-04-25T08:45:08.062Z,41.88
2019-04-25T08:47:40.117Z,37.58
2019-04-25T08:50:26.785Z,42.53
2019-04-25T08:52:51.831Z,39.08
2019-04-25T08:55:42.053Z,38.67
2019-04-25T08:58:23.663Z,37.53
2019-04-25T09:01:14.171Z,35.78
2019-04-25T09:04:05.317Z,38.17
2019-04-25T09:06:36.496Z,39.53
2019-04-25T09:09:08.530Z,37.70
2019-04-25T09:11:40.054Z,34.65
2019-04-25T09:14:10.701Z,34.92
2019-04-25T09:16:44.195Z,37.88
2019-04-25T09:19:14.810Z,35.50
2019-04-25T09:21:49.146Z,34.03
2019-04-25T09:24:21.843Z,39.23
2019-04-25T09:26:52.014Z,32.63
2019-04-25T09:29:23.502Z,34.65
2019-04-25T09:31:54.249Z,33.67
2019-04-25T09:34:24.775Z,31.77
2019-04-25T09:36:57.144Z,37.15
2019-04-25T09:39:45.460Z,36.30
2019-04-25T09:42:16.003Z,32.95
2019-04-25T09:44:50.973Z,33.13
2019-04-25T09:47:21.279Z,34.50
2019-04-25T09:49:51.960Z,31.02
2019-04-25T09:52:24.459Z,30.67
2019-04-25T09:55:05.516Z,26.45
2019-04-25T09:57:41.087Z,31.65
2019-04-25T10:00:13.618Z,27.20
2019-04-25T10:02:44.622Z,27.87
2019-04-25T10:05:15.426Z,28.73
2019-04-25T10:07:46.362Z,28.38
2019-04-25T10:10:17.926Z,31.80
2019-04-25T10:12:48.212Z,24.57
2019-04-25T10:15:30.448Z,27.27
2019-04-25T10:18:01.013Z,28.20
2019-04-25T10:20:33.268Z,27.15
2019-04-25T10:23:05.051Z,25.92
2019-04-25T10:25:35.569Z,26.87
2019-04-25T10:28:07.156Z,19.45
2019-04-25T10:30:37.552Z,21.42
2019-04-25T10:33:08.050Z,19.60
2019-04-25T10:35:47.949Z,22.77
2019-04-25T10:38:10.569Z,22.52
2019-04-25T10:40:40.952Z,22.42
2019-04-25T10:43:11.705Z,21.15
2019-04-25T10:45:44.743Z,24.35
2019-04-25T10:48:15.898Z,28.38
2019-04-25T10:50:47.425Z,23.20
2019-04-25T10:53:18.631Z,26.97
2019-04-25T10:55:49.706Z,23.10
2019-04-25T10:58:20.461Z,24.50
2019-04-25T11:00:52.921Z,26.23
2019-04-25T11:03:33.836Z,24.43
2019-04-25T11:06:04.011Z,24.72
2019-04-25T11:08:34.698Z,24.98
2019-04-25T11:11:05.843Z,26.12
2019-04-25T11:13:36.659Z,28.05
2019-04-25T11:16:08.343Z,23.60
2019-04-25T11:18:38.789Z,28.50
2019-04-25T11:21:09.391Z,25.10
2019-04-25T11:23:40.520Z,23.55
2019-04-25T11:26:11.981Z,25.30
2019-04-25T11:28:45.125Z,26.02
2019-04-25T11:31:16.116Z,25.85
2019-04-25T11:33:46.588Z,26.52
2019-04-25T11:36:16.995Z,27.73
2019-04-25T11:39:05.118Z,24.30
2019-04-25T11:41:36.130Z,22.65
2019-04-25T11:44:07.228Z,22.17
2019-04-25T11:46:39.345Z,29.92
2019-04-25T11:49:09.744Z,24.72
2019-04-25T11:51:40.291Z,24.05
2019-04-25T11:54:10.651Z,23.83
2019-04-25T11:56:42.659Z,24.00
2019-04-25T11:59:13.735Z,25.57
2019-04-25T12:01:47.557Z,30.85
2019-04-25T12:04:17.762Z,24.50
2019-04-25T12:06:48.346Z,27.82
2019-04-25T12:09:19.877Z,24.05
2019-04-25T12:11:50.335Z,26.87
2019-04-25T12:14:20.633Z,29.15
2019-04-25T12:16:51.901Z,25.05
2019-04-25T12:19:33.099Z,23.10
2019-04-25T12:21:56.689Z,28.12
2019-04-25T12:24:27.490Z,25.25
2019-04-25T12:26:57.975Z,24.10
2019-04-25T12:29:28.282Z,31.68
2019-04-25T12:31:58.759Z,26.02
2019-04-25T12:34:29.098Z,24.07
2019-04-25T12:37:01.028Z,28.67
2019-04-25T12:39:31.398Z,25.70
2019-04-25T12:42:01.886Z,25.32
2019-04-25T12:44:50.876Z,24.18
2019-04-25T12:47:25.701Z,24.07
2019-04-25T12:49:56.156Z,25.68
2019-04-25T12:52:26.495Z,23.75
2019-04-25T12:55:01.956Z,22.87
2019-04-25T12:57:34.369Z,25.65
2019-04-25T13:00:06.006Z,26.45
2019-04-25T13:02:37.426Z,24.77
2019-04-25T13:05:08.128Z,24.77
2019-04-25T13:07:38.673Z,26.45
2019-04-25T13:10:15.372Z,25.27
2019-04-25T13:12:47.284Z,26.17
2019-04-25T13:15:19.275Z,27.30
2019-04-25T13:17:53.697Z,27.58
2019-04-25T13:20:24.199Z,30.95
2019-04-25T13:22:56.374Z,25.00
2019-04-25T13:25:27.175Z,34.55
2019-04-25T13:28:17.287Z,28.12
2019-04-25T13:31:04.100Z,24.57
2019-04-25T13:33:37.021Z,26.30
2019-04-25T13:36:09.181Z,23.80
2019-04-25T13:38:45.966Z,28.47
2019-04-25T13:41:21.460Z,26.73
2019-04-25T13:43:54.741Z,25.52
2019-04-25T13:46:27.706Z,27.22
2019-04-25T13:48:58.449Z,27.45
2019-04-25T13:51:28.896Z,28.25
2019-04-25T13:54:00.978Z,27.73
2019-04-25T13:56:40.383Z,26.73
2019-04-25T13:59:08.294Z,28.57
2019-04-25T14:01:38.834Z,26.37
2019-04-25T14:04:09.914Z,25.23
2019-04-25T14:06:40.478Z,25.55
2019-04-25T14:09:13.319Z,24.75
2019-04-25T14:11:48.371Z,23.47
2019-04-25T14:14:18.910Z,25.77
2019-04-25T14:16:59.929Z,29.55
2019-04-25T14:19:40.783Z,29.23
2019-04-25T14:22:15.854Z,29.48
2019-04-25T14:24:46.758Z,26.57
2019-04-25T14:27:18.452Z,26.12
2019-04-25T14:29:49.150Z,25.77
2019-04-25T14:32:20.230Z,28.47
2019-04-25T14:34:50.755Z,24.43
2019-04-25T14:37:22.141Z,24.72
2019-04-25T14:39:53.641Z,33.73
2019-04-25T14:42:26.398Z,23.73
2019-04-25T14:44:57.234Z,22.85
2019-04-25T14:47:29.553Z,29.40
2019-04-25T14:50:05.123Z,24.98
2019-04-25T14:52:35.656Z,29.75
2019-04-25T14:55:27.356Z,25.05
2019-04-25T14:57:59.618Z,30.10
2019-04-25T15:00:37.807Z,31.12
2019-04-25T15:03:08.182Z,31.25
2019-04-25T15:05:41.867Z,27.87
2019-04-25T15:08:11.084Z,27.77
2019-04-25T15:10:41.600Z,28.67
2019-04-25T15:13:12.677Z,25.50
2019-04-25T15:15:43.265Z,25.77
2019-04-25T15:18:13.849Z,25.75
2019-04-25T15:20:44.983Z,32.73
2019-04-25T15:23:15.431Z,35.03
2019-04-25T15:25:46.121Z,35.98
2019-04-25T15:28:16.604Z,39.13
2019-04-25T15:30:47.120Z,44.08
2019-04-25T15:33:17.640Z,39.75
2019-04-25T15:35:49.716Z,32.33
2019-04-25T15:38:27.676Z,33.50
2019-04-25T15:41:01.167Z,44.67
2019-04-25T15:43:51.457Z,41.28
2019-04-25T15:46:23.638Z,44.90
2019-04-25T15:48:54.036Z,44.42
2019-04-25T15:51:25.435Z,44.70
2019-04-25T15:53:56.061Z,49.35
2019-04-25T15:56:27.457Z,48.73
2019-04-25T15:58:59.042Z,49.60
2019-04-25T16:01:32.479Z,49.00
2019-04-25T16:04:04.737Z,54.70
2019-04-25T16:06:36.350Z,64.07
2019-04-25T16:09:10.508Z,60.25
2019-04-25T16:11:41.343Z,57.53
2019-04-25T16:14:11.874Z,58.02
2019-04-25T16:17:23.795Z,53.52
2019-04-25T16:19:51.704Z,53.58
2019-04-25T16:22:22.231Z,54.38
2019-04-25T16:24:52.968Z,55.48
2019-04-25T16:27:23.486Z,63.50
2019-04-25T16:29:53.887Z,57.33
2019-04-25T16:32:25.934Z,55.60
2019-04-25T16:34:56.202Z,52.48
2019-04-25T16:37:26.758Z,54.23
2019-04-25T16:40:00.208Z,60.17
2019-04-25T16:42:31.991Z,60.83
2019-04-25T16:45:02.382Z,61.05
2019-04-25T16:47:35.183Z,58.52
2019-04-25T16:50:06.982Z,65.03
2019-04-25T16:52:38.001Z,69.35
2019-04-25T16:55:14.111Z,72.53
2019-04-25T16:57:44.655Z,67.27
2019-04-25T17:00:22.776Z,57.30
2019-04-25T17:02:58.272Z,66.30
2019-04-25T17:05:35.644Z,62.67
2019-04-25T17:08:09.464Z,70.43
2019-04-25T17:10:39.963Z,63.73
2019-04-25T17:13:10.720Z,60.43
2019-04-25T17:15:45.640Z,67.47
2019-04-25T17:18:23.385Z,73.67
2019-04-25T17:21:07.340Z,67.00
2019-04-25T17:23:37.833Z,68.43
2019-04-25T17:26:08.285Z,73.20
2019-04-25T17:28:41.130Z,71.23
2019-04-25T17:31:28.914Z,66.45
2019-04-25T17:34:04.299Z,64.63
2019-04-25T17:36:50.885Z,63.17
2019-04-25T17:39:39.776Z,64.53
2019-04-25T17:42:12.055Z,49.87
2019-04-25T17:44:44.592Z,55.37
2019-04-25T17:47:15.013Z,56.00
2019-04-25T17:49:48.415Z,59.53
2019-04-25T17:52:18.888Z,52.53
2019-04-25T17:54:49.243Z,53.20
2019-04-25T17:57:23.035Z,44.07
2019-04-25T17:59:53.494Z,43.03
2019-04-25T18:02:24.066Z,48.73
2019-04-25T18:04:56.134Z,47.43
2019-04-25T18:07:28.134Z,42.93
2019-04-25T18:10:00.257Z,43.83
2019-04-25T18:12:30.836Z,49.27
2019-04-25T18:15:04.740Z,38.47
2019-04-25T18:17:36.597Z,49.40
2019-04-25T18:20:11.580Z,45.90
2019-04-25T18:22:49.294Z,37.60
2019-04-25T18:25:27.194Z,35.70
2019-04-25T18:28:03.110Z,38.83
2019-04-25T18:30:33.562Z,38.90
2019-04-25T18:33:12.479Z,36.10
2019-04-25T18:35:44.581Z,32.37
2019-04-25T18:38:25.577Z,45.33
2019-04-25T18:41:03.443Z,42.37
2019-04-25T18:43:36.657Z,38.93
2019-04-25T18:46:21.446Z,35.10
2019-04-25T18:49:06.352Z,43.27
2019-04-25T18:51:38.452Z,35.83
2019-04-25T18:54:10.623Z,34.03
2019-04-25T18:56:53.765Z,42.73
2019-04-25T18:59:48.115Z,38.33
2019-04-25T19:02:41.970Z,35.20
2019-04-25T19:05:17.218Z,40.93
2019-04-25T19:07:55.253Z,78.83
2019-04-25T19:17:02.145Z,42.90
2019-04-25T19:19:39.694Z,44.13
2019-04-25T19:22:13.376Z,41.73
2019-04-25T19:24:50.760Z,34.90
2019-04-25T19:27:23.838Z,42.40
2019-04-25T19:30:16.585Z,39.77
2019-04-25T19:32:49.277Z,41.33
2019-04-25T19:35:20.173Z,39.63
2019-04-25T19:37:59.080Z,38.50
2019-04-25T19:40:42.287Z,40.77
2019-04-25T19:43:19.027Z,38.90
2019-04-25T19:45:49.961Z,37.10
2019-04-25T19:48:29.847Z,34.37
2019-04-25T19:51:08.286Z,39.40
2019-04-25T19:53:43.115Z,33.67
2019-04-25T19:56:14.776Z,40.43
2019-04-25T19:58:47.210Z,39.70
2019-04-25T20:01:17.916Z,46.17
2019-04-25T20:04:03.817Z,38.93
2019-04-25T20:07:05.457Z,35.40
2019-04-25T20:10:00.868Z,33.63
2019-04-25T20:12:37.444Z,38.03
2019-04-25T20:15:21.196Z,33.02
2019-04-25T20:17:51.976Z,32.77
2019-04-25T20:20:23.634Z,38.97
2019-04-25T20:22:56.877Z,32.33
2019-04-25T20:25:29.944Z,35.97
2019-04-25T20:28:00.308Z,33.57
2019-04-25T20:30:31.663Z,34.50
2019-04-25T20:33:07.813Z,32.37
2019-04-25T20:35:44.867Z,34.18
2019-04-25T20:38:19.647Z,31.93
2019-04-25T20:40:51.751Z,33.87
2019-04-25T20:43:22.205Z,29.43
2019-04-25T20:45:54.486Z,32.57
2019-04-25T20:48:27.135Z,28.80
2019-04-25T20:50:57.657Z,29.93
2019-04-25T20:53:31.148Z,34.27
2019-04-25T20:56:05.718Z,33.87
2019-04-25T20:58:38.070Z,37.47
2019-04-25T21:01:08.527Z,28.73
2019-04-25T21:03:39.132Z,41.83
2019-04-25T21:06:13.054Z,33.77
2019-04-25T21:08:46.287Z,33.87
2019-04-25T21:11:17.223Z,32.50
2019-04-25T21:14:01.615Z,37.83
2019-04-25T21:16:42.971Z,37.73
2019-04-25T21:19:17.870Z,41.47
2019-04-25T21:21:48.236Z,39.33
2019-04-25T21:24:18.634Z,40.43
2019-04-25T21:26:51.675Z,43.37
2019-04-25T21:29:23.322Z,34.80
2019-04-25T21:31:57.065Z,44.73
2019-04-25T21:34:30.787Z,45.57
2019-04-25T21:37:02.155Z,48.93
2019-04-25T21:39:52.722Z,47.85
2019-04-25T21:42:32.602Z,45.47
2019-04-25T21:45:03.247Z,50.50
2019-04-25T21:47:35.638Z,50.90
2019-04-25T21:50:07.836Z,59.60
2019-04-25T21:52:38.435Z,58.70
2019-04-25T21:55:11.908Z,63.87
2019-04-25T21:57:42.766Z,57.10
2019-04-25T22:00:16.018Z,68.33
2019-04-25T22:02:56.049Z,60.77
2019-04-25T22:05:26.620Z,56.93
2019-04-25T22:07:58.286Z,60.93
2019-04-25T22:10:32.646Z,56.37
2019-04-25T22:13:13.514Z,60.40
2019-04-25T22:15:35.061Z,70.62
2019-04-25T22:18:06.719Z,56.93
2019-04-25T22:20:37.602Z,62.97
2019-04-25T22:23:08.204Z,59.50
2019-04-25T22:25:39.716Z,51.70
2019-04-25T22:28:10.611Z,52.20
2019-04-25T22:30:43.131Z,56.13
2019-04-25T22:33:18.182Z,48.63
2019-04-25T22:35:50.682Z,52.08
2019-04-25T22:38:21.311Z,52.70
2019-04-25T22:40:51.708Z,52.10
2019-04-25T22:43:23.659Z,51.60
2019-04-25T22:45:54.647Z,46.07
2019-04-25T22:48:26.824Z,43.03
2019-04-25T22:50:57.479Z,43.57
2019-04-25T22:53:35.199Z,42.50
2019-04-25T22:56:05.670Z,37.37
2019-04-25T22:58:36.238Z,39.83
2019-04-25T23:01:09.175Z,35.10
2019-04-25T23:03:41.497Z,35.73
2019-04-25T23:06:12.134Z,37.73
2019-04-25T23:08:42.583Z,34.37
2019-04-25T23:11:13.564Z,35.13
2019-04-25T23:13:44.613Z,32.57
2019-04-25T23:16:15.657Z,34.90
2019-04-25T23:18:46.058Z,29.60
2019-04-25T23:21:16.495Z,32.23
2019-04-25T23:23:46.988Z,30.47
2019-04-25T23:26:21.907Z,28.37
2019-04-25T23:28:56.499Z,31.40
2019-04-25T23:31:37.476Z,30.87
2019-04-25T23:34:09.273Z,31.07
2019-04-25T23:36:39.688Z,36.80
2019-04-25T23:39:11.261Z,32.57
2019-04-25T23:41:41.997Z,29.83
2019-04-25T23:44:12.474Z,30.13
2019-04-25T23:46:43.424Z,30.83
2019-04-25T23:49:14.763Z,30.30
2019-04-25T23:51:45.528Z,27.10
2019-04-25T23:54:17.135Z,26.67
2019-04-25T23:56:47.825Z,31.07
2019-04-25T23:59:20.476Z,31.07
